TAF and METAR

METAR for Inca Manco Capac Airport

SPJL 181300Z 33002KT 9999 SCT015 10/04 Q1037 RMK PP000
Report created 18. apr 15:00
wind 2 knots from NNW (330°) visibility > 10km scattered clouds (~50% cover) at 1500 feet Temperature 10° with dewpoint at 4° (Humidity 66.27%) Pressure 1037 hPa

TAF for Inca Manco Capac Airport

TAF SPJL 181115Z 1812/1912 VRB03KT 9999 SCT015 BKN080 TX18/1819Z TN03/1910Z FM181700 08006KT 9999 SCT020 FM182100 14005KT 9999 SCT015 BKN080 FM190400 VRB05KT 9999 SCT010 BKN080
Report created 18. apr 13:15

between 18. apr 14:00 - 19. apr 14:00

wind 3 knots from various directions visibility > 10km scattered clouds (~50% cover) at 1500 feet broken clouds (~75% cover) at 8000 feet Max temperature 18° expected today at around 21 o'clock Min temperature 03° expected tomorrow at around 12 o'clock

From 18. apr 19:00

wind 6 knots from E (080°) visibility > 10km scattered clouds (~50% cover) at 2000 feet

From 18. apr 23:00

wind 5 knots from SE (140°) visibility > 10km scattered clouds (~50% cover) at 1500 feet broken clouds (~75% cover) at 8000 feet

From 19. apr 06:00

wind 5 knots from various directions visibility > 10km scattered clouds (~50% cover) at 1000 feet broken clouds (~75% cover) at 8000 feet
Inca Manco Capac Airport in Peru at 3827m

Latest 5 airports